Time;durP1;ratioP1;P1;durP2;ratioP2;P2;SDS_P1;SDS_P2;PMS_P1;PMS_P2;Temp;Humidity;BMP_temperature;BMP_pressure;BME280_temperature;BME280_humidity;BME280_pressure;Samples;Min_cycle;Max_cycle;Signal;HPM_P1;HPM_P2
2023/07/24 00:00:35;;;;;;;4.20;3.60;;;;;;;;;;5035610;28;20494;-79
2023/07/24 00:03:02;;;;;;;5.60;4.00;;;;;;;;;;5036943;28;20648;-79
2023/07/24 00:05:28;;;;;;;4.30;3.63;;;;;;;;;;5001160;28;20329;-79
2023/07/24 00:07:54;;;;;;;5.20;3.93;;;;;;;;;;5019288;28;20218;-79
2023/07/24 00:10:21;;;;;;;5.60;3.80;;;;;;;;;;5020312;28;20222;-80
2023/07/24 00:12:47;;;;;;;4.33;3.73;;;;;;;;;;5032480;28;20660;-79
2023/07/24 00:15:13;;;;;;;4.00;3.60;;;;;;;;;;5019813;28;20220;-79
2023/07/24 00:17:39;;;;;;;5.13;4.10;;;;;;;;;;5004505;28;20712;-79
2023/07/24 00:20:06;;;;;;;5.37;3.83;;;;;;;;;;5041465;28;20233;-79
2023/07/24 00:22:32;;;;;;;6.03;4.00;;;;;;;;;;5039429;28;20186;-79
2023/07/24 00:24:58;;;;;;;5.13;3.80;;;;;;;;;;5017773;28;20190;-79
2023/07/24 00:27:25;;;;;;;4.50;3.90;;;;;;;;;;5014928;28;20617;-79
2023/07/24 00:29:51;;;;;;;5.73;4.33;;;;;;;;;;5040560;28;20292;-79
2023/07/24 00:32:17;;;;;;;4.53;4.10;;;;;;;;;;5035218;28;20892;-79
2023/07/24 00:34:43;;;;;;;6.30;5.10;;;;;;;;;;5020175;28;20179;-79
2023/07/24 00:37:09;;;;;;;5.73;4.67;;;;;;;;;;5020851;28;20269;-79
2023/07/24 00:39:35;;;;;;;4.37;3.93;;;;;;;;;;5016690;28;20740;-79
2023/07/24 00:42:02;;;;;;;6.93;4.53;;;;;;;;;;4985608;28;20202;-79
2023/07/24 00:44:28;;;;;;;5.00;4.40;;;;;;;;;;4997009;28;20674;-79
2023/07/24 00:46:54;;;;;;;5.40;4.60;;;;;;;;;;5016231;28;20263;-79
2023/07/24 00:49:21;;;;;;;5.13;4.60;;;;;;;;;;5032145;28;20187;-79
2023/07/24 00:51:47;;;;;;;5.90;4.50;;;;;;;;;;5007428;28;20218;-79
2023/07/24 00:54:14;;;;;;;5.13;4.50;;;;;;;;;;5035168;28;20196;-79
2023/07/24 00:56:41;;;;;;;4.90;4.10;;;;;;;;;;5039004;28;20297;-79
2023/07/24 00:59:07;;;;;;;5.20;4.30;;;;;;;;;;5019739;28;20195;-79
2023/07/24 01:01:33;;;;;;;5.70;4.53;;;;;;;;;;5017650;28;20238;-79
2023/07/24 01:03:59;;;;;;;6.90;4.60;;;;;;;;;;5016011;28;20187;-79
2023/07/24 01:06:25;;;;;;;4.73;4.07;;;;;;;;;;5013225;28;20213;-79
2023/07/24 01:08:52;;;;;;;6.20;4.57;;;;;;;;;;5030592;28;20190;-79
2023/07/24 01:11:18;;;;;;;5.13;4.43;;;;;;;;;;5012786;28;20712;-79
2023/07/24 01:13:46;;;;;;;6.70;4.23;;;;;;;;;;4998628;28;20182;-79
2023/07/24 01:16:14;;;;;;;6.27;4.73;;;;;;;;;;5014322;28;20217;-79
2023/07/24 01:18:42;;;;;;;5.83;4.67;;;;;;;;;;5027779;28;20187;-79
2023/07/24 01:21:09;;;;;;;5.27;4.77;;;;;;;;;;4994514;28;20225;-79
2023/07/24 01:23:52;;;;;;;5.17;4.47;;;;;;;;;;4999151;28;20212;-79
2023/07/24 01:26:19;;;;;;;5.47;4.60;;;;;;;;;;5001991;28;20229;-79
2023/07/24 01:28:46;;;;;;;7.10;4.80;;;;;;;;;;5022254;28;20217;-79
2023/07/24 01:31:12;;;;;;;5.23;4.50;;;;;;;;;;5001357;28;20224;-79
2023/07/24 01:33:38;;;;;;;5.60;4.60;;;;;;;;;;5036033;28;20228;-79
2023/07/24 01:36:06;;;;;;;6.20;4.60;;;;;;;;;;4999859;28;20210;-79
2023/07/24 01:38:33;;;;;;;5.20;4.70;;;;;;;;;;5025621;28;20214;-79
2023/07/24 01:41:00;;;;;;;6.00;5.00;;;;;;;;;;4990506;28;20221;-79
2023/07/24 01:43:29;;;;;;;6.13;4.90;;;;;;;;;;5038163;28;20331;-79
2023/07/24 01:45:56;;;;;;;6.87;4.90;;;;;;;;;;5034997;28;20199;-79
2023/07/24 01:48:22;;;;;;;6.27;5.30;;;;;;;;;;5001498;28;20210;-79
2023/07/24 01:50:48;;;;;;;5.40;4.90;;;;;;;;;;5015392;28;20217;-79
2023/07/24 01:53:14;;;;;;;6.53;4.80;;;;;;;;;;5037328;28;20182;-79
2023/07/24 01:55:40;;;;;;;6.53;5.03;;;;;;;;;;5030166;28;20301;-79
2023/07/24 01:58:07;;;;;;;5.43;4.73;;;;;;;;;;4999737;28;20256;-81
2023/07/24 02:00:33;;;;;;;5.10;4.33;;;;;;;;;;5014842;28;20203;-80
2023/07/24 02:02:59;;;;;;;5.03;4.50;;;;;;;;;;5030909;28;20196;-81
2023/07/24 02:05:26;;;;;;;6.37;4.83;;;;;;;;;;5023291;28;20211;-81
2023/07/24 02:07:52;;;;;;;5.73;4.77;;;;;;;;;;5002101;28;20214;-78
2023/07/24 02:10:18;;;;;;;6.00;5.00;;;;;;;;;;5015805;28;20212;-79
2023/07/24 02:12:44;;;;;;;6.73;5.13;;;;;;;;;;5014038;28;20186;-78
2023/07/24 02:15:10;;;;;;;7.10;5.10;;;;;;;;;;5025627;28;20241;-79
2023/07/24 02:17:37;;;;;;;6.03;5.07;;;;;;;;;;5016779;28;20218;-79
2023/07/24 02:20:03;;;;;;;6.07;5.40;;;;;;;;;;5036773;28;20190;-81
2023/07/24 02:22:40;;;;;;;6.57;5.23;;;;;;;;;;5037583;28;20213;-81
2023/07/24 02:25:07;;;;;;;6.73;5.27;;;;;;;;;;5035799;28;20182;-81
2023/07/24 02:27:34;;;;;;;6.57;5.20;;;;;;;;;;4986076;28;20210;-81
2023/07/24 02:30:00;;;;;;;6.10;5.30;;;;;;;;;;5036998;28;20879;-81
2023/07/24 02:32:26;;;;;;;7.93;5.03;;;;;;;;;;5000065;28;20190;-80
2023/07/24 02:34:53;;;;;;;5.40;4.60;;;;;;;;;;5000383;28;20191;-81
2023/07/24 02:37:19;;;;;;;6.93;5.07;;;;;;;;;;5036447;28;20205;-81
2023/07/24 02:39:46;;;;;;;6.10;5.00;;;;;;;;;;5017713;28;20183;-80
2023/07/24 02:42:12;;;;;;;8.20;4.80;;;;;;;;;;5011134;28;20209;-81
2023/07/24 02:44:39;;;;;;;5.83;4.90;;;;;;;;;;5002526;28;20184;-81
2023/07/24 02:47:05;;;;;;;6.80;5.07;;;;;;;;;;5017000;28;20203;-81
2023/07/24 02:49:31;;;;;;;6.10;5.20;;;;;;;;;;5018951;28;20179;-81
2023/07/24 02:51:57;;;;;;;6.00;5.33;;;;;;;;;;5003442;28;20206;-80
2023/07/24 02:54:26;;;;;;;5.67;4.97;;;;;;;;;;5018906;28;20626;-81
2023/07/24 02:56:52;;;;;;;5.97;5.10;;;;;;;;;;5039384;28;20190;-81
2023/07/24 02:59:18;;;;;;;8.07;4.87;;;;;;;;;;5005499;28;20190;-81
2023/07/24 03:01:44;;;;;;;6.30;5.20;;;;;;;;;;5040759;28;20267;-81
2023/07/24 03:04:10;;;;;;;6.50;5.40;;;;;;;;;;5036608;28;20182;-81
2023/07/24 03:06:36;;;;;;;6.90;5.43;;;;;;;;;;5005522;28;20212;-80
2023/07/24 03:09:03;;;;;;;6.63;5.80;;;;;;;;;;5031691;28;20186;-80
2023/07/24 03:11:29;;;;;;;6.13;5.07;;;;;;;;;;5030023;28;20216;-80
2023/07/24 03:13:55;;;;;;;5.33;4.80;;;;;;;;;;5017360;28;20300;-80
2023/07/24 03:16:21;;;;;;;6.00;5.07;;;;;;;;;;5007734;28;20723;-80
2023/07/24 03:18:48;;;;;;;6.57;5.30;;;;;;;;;;5026062;28;20210;-80
2023/07/24 03:21:14;;;;;;;6.40;4.73;;;;;;;;;;5006617;28;20293;-80
2023/07/24 03:23:41;;;;;;;6.57;5.30;;;;;;;;;;5010627;28;20217;-80
2023/07/24 03:26:07;;;;;;;6.90;5.13;;;;;;;;;;5018243;28;20289;-80
2023/07/24 03:28:33;;;;;;;6.67;5.40;;;;;;;;;;5040296;28;20206;-80
2023/07/24 03:30:59;;;;;;;5.93;5.30;;;;;;;;;;5006325;28;20214;-80
2023/07/24 03:33:25;;;;;;;6.60;5.60;;;;;;;;;;5041948;28;20183;-79
2023/07/24 03:35:51;;;;;;;5.80;5.20;;;;;;;;;;5041212;28;20185;-80
2023/07/24 03:38:18;;;;;;;6.10;5.10;;;;;;;;;;5041462;28;20178;-80
2023/07/24 03:40:44;;;;;;;7.03;5.03;;;;;;;;;;5003018;28;20211;-80
2023/07/24 03:43:10;;;;;;;6.93;5.20;;;;;;;;;;5042638;28;20249;-79
2023/07/24 03:45:37;;;;;;;8.00;5.30;;;;;;;;;;5037224;28;20189;-79
2023/07/24 03:48:03;;;;;;;5.90;5.30;;;;;;;;;;5039230;28;20925;-80
2023/07/24 03:50:30;;;;;;;6.37;5.23;;;;;;;;;;5035102;28;20289;-79
2023/07/24 03:52:56;;;;;;;6.30;5.20;;;;;;;;;;5038754;28;20179;-79
2023/07/24 03:55:22;;;;;;;6.90;5.60;;;;;;;;;;5004294;28;20187;-80
2023/07/24 03:57:48;;;;;;;6.53;5.80;;;;;;;;;;5003041;28;20186;-80
2023/07/24 04:00:15;;;;;;;6.97;5.27;;;;;;;;;;5038702;28;20207;-80
2023/07/24 04:02:41;;;;;;;7.73;5.40;;;;;;;;;;5039481;28;20323;-80
2023/07/24 04:05:07;;;;;;;6.20;5.43;;;;;;;;;;5037317;28;20182;-80
2023/07/24 04:07:34;;;;;;;7.23;5.93;;;;;;;;;;5047974;28;20206;-80
2023/07/24 04:10:00;;;;;;;6.00;5.00;;;;;;;;;;5040209;28;20179;-79
2023/07/24 04:12:26;;;;;;;7.03;5.03;;;;;;;;;;5024615;28;20181;-80
2023/07/24 04:14:52;;;;;;;7.67;5.27;;;;;;;;;;5034289;28;20183;-80
2023/07/24 04:17:18;;;;;;;6.30;5.37;;;;;;;;;;5016536;28;20614;-80
2023/07/24 04:19:44;;;;;;;6.40;5.20;;;;;;;;;;5017143;28;20222;-79
2023/07/24 04:22:10;;;;;;;7.20;5.30;;;;;;;;;;5011448;28;20211;-80
2023/07/24 04:24:37;;;;;;;5.63;4.70;;;;;;;;;;5017166;28;20197;-79
2023/07/24 04:27:03;;;;;;;6.10;4.60;;;;;;;;;;5022558;28;20272;-80
2023/07/24 04:29:29;;;;;;;5.83;5.13;;;;;;;;;;5050699;28;20194;-80
2023/07/24 04:31:55;;;;;;;5.73;5.07;;;;;;;;;;5042468;28;20211;-80
2023/07/24 04:34:21;;;;;;;7.63;4.60;;;;;;;;;;5037264;28;20179;-80
2023/07/24 04:36:47;;;;;;;6.47;5.17;;;;;;;;;;5035592;28;20192;-79
2023/07/24 04:39:13;;;;;;;5.43;4.83;;;;;;;;;;5030509;28;20209;-80
2023/07/24 04:41:40;;;;;;;5.77;4.67;;;;;;;;;;5016534;28;20250;-79
2023/07/24 04:44:06;;;;;;;6.17;5.13;;;;;;;;;;5014382;28;20296;-79
2023/07/24 04:46:32;;;;;;;7.30;4.80;;;;;;;;;;5010332;28;20210;-80
2023/07/24 04:48:58;;;;;;;7.07;4.40;;;;;;;;;;5032790;28;20185;-79
2023/07/24 04:51:24;;;;;;;5.90;4.60;;;;;;;;;;5012026;22;20226;-78
2023/07/24 04:53:50;;;;;;;6.63;5.00;;;;;;;;;;4988093;28;20262;-78
2023/07/24 04:56:16;;;;;;;6.80;5.27;;;;;;;;;;5007490;28;20408;-78
2023/07/24 04:58:42;;;;;;;5.97;4.90;;;;;;;;;;4971419;28;20193;-78
2023/07/24 05:01:09;;;;;;;5.73;4.83;;;;;;;;;;4985100;28;20185;-78
2023/07/24 05:03:35;;;;;;;5.73;4.67;;;;;;;;;;4984612;28;20215;-78
2023/07/24 05:06:02;;;;;;;8.03;5.07;;;;;;;;;;4973451;28;20243;-78
2023/07/24 05:08:28;;;;;;;5.67;4.70;;;;;;;;;;4978137;28;20199;-78
2023/07/24 05:10:56;;;;;;;8.83;5.20;;;;;;;;;;4976006;28;20185;-78
2023/07/24 05:13:22;;;;;;;8.43;5.10;;;;;;;;;;4977001;28;20204;-77
2023/07/24 05:15:48;;;;;;;5.80;4.77;;;;;;;;;;4982068;28;20182;-77
2023/07/24 05:18:14;;;;;;;5.63;4.87;;;;;;;;;;4977711;28;20216;-77
2023/07/24 05:20:48;;;;;;;5.37;4.77;;;;;;;;;;4979308;28;20243;-76
2023/07/24 05:23:14;;;;;;;5.40;4.70;;;;;;;;;;4986708;28;20200;-78
2023/07/24 05:25:41;;;;;;;7.10;4.93;;;;;;;;;;4981294;28;20243;-77
2023/07/24 05:28:07;;;;;;;6.33;5.27;;;;;;;;;;4976750;28;20211;-78
2023/07/24 05:30:33;;;;;;;5.93;5.00;;;;;;;;;;4974794;28;20652;-78
2023/07/24 05:33:00;;;;;;;9.40;5.77;;;;;;;;;;4982565;28;20693;-77
2023/07/24 05:35:26;;;;;;;10.37;5.80;;;;;;;;;;4979280;28;20176;-83
2023/07/24 05:37:52;;;;;;;6.73;5.47;;;;;;;;;;4960744;28;20195;-77
2023/07/24 05:40:19;;;;;;;7.10;5.77;;;;;;;;;;4976160;28;20180;-77
2023/07/24 05:42:47;;;;;;;7.53;5.90;;;;;;;;;;4988736;28;20610;-77
2023/07/24 05:45:14;;;;;;;7.30;5.37;;;;;;;;;;4977655;28;20201;-77
2023/07/24 05:47:41;;;;;;;7.77;5.80;;;;;;;;;;4986244;28;20207;-77
2023/07/24 05:50:07;;;;;;;7.17;5.60;;;;;;;;;;4987406;28;20676;-77
2023/07/24 05:52:33;;;;;;;6.50;5.73;;;;;;;;;;4985856;28;20215;-77
2023/07/24 05:55:00;;;;;;;9.97;6.00;;;;;;;;;;4987792;28;20176;-77
2023/07/24 05:57:27;;;;;;;6.37;5.27;;;;;;;;;;4987026;28;20194;-77
2023/07/24 05:59:53;;;;;;;6.60;5.50;;;;;;;;;;4989693;28;20187;-77
2023/07/24 06:02:19;;;;;;;9.17;5.57;;;;;;;;;;4987511;28;20666;-77
2023/07/24 06:04:45;;;;;;;6.93;5.67;;;;;;;;;;4983181;28;20180;-77
2023/07/24 06:07:11;;;;;;;6.63;5.77;;;;;;;;;;4985919;28;20211;-76
2023/07/24 06:09:37;;;;;;;6.70;5.67;;;;;;;;;;4986528;28;20199;-77
2023/07/24 06:12:04;;;;;;;7.03;5.57;;;;;;;;;;4988603;28;20200;-77
2023/07/24 06:14:30;;;;;;;6.37;5.57;;;;;;;;;;4977409;28;20183;-77
2023/07/24 06:16:56;;;;;;;8.87;5.93;;;;;;;;;;4974001;28;20243;-76
2023/07/24 06:19:22;;;;;;;10.13;5.37;;;;;;;;;;4986738;28;20246;-77
2023/07/24 06:21:48;;;;;;;7.30;5.70;;;;;;;;;;4984088;28;20306;-77
2023/07/24 06:24:14;;;;;;;7.03;5.43;;;;;;;;;;4984033;28;20191;-77
2023/07/24 06:26:41;;;;;;;7.87;5.43;;;;;;;;;;4983057;28;20204;-77
2023/07/24 06:29:07;;;;;;;6.30;5.60;;;;;;;;;;4985138;28;20183;-77
2023/07/24 06:31:33;;;;;;;7.13;5.67;;;;;;;;;;5001244;28;20218;-77
2023/07/24 06:33:59;;;;;;;8.50;6.40;;;;;;;;;;4987487;28;20184;-77
2023/07/24 06:36:26;;;;;;;7.90;6.17;;;;;;;;;;4985186;28;20279;-77
2023/07/24 06:38:52;;;;;;;9.47;6.60;;;;;;;;;;4987340;28;20216;-77
2023/07/24 06:41:20;;;;;;;9.40;6.50;;;;;;;;;;4981589;28;20184;-77
2023/07/24 06:43:46;;;;;;;8.57;6.23;;;;;;;;;;4983694;28;20224;-77
2023/07/24 06:46:12;;;;;;;8.13;6.20;;;;;;;;;;4986991;28;20193;-77
2023/07/24 06:48:38;;;;;;;7.77;6.27;;;;;;;;;;4985461;28;20251;-77
2023/07/24 06:51:04;;;;;;;8.33;6.80;;;;;;;;;;4987992;28;20279;-77
2023/07/24 06:53:31;;;;;;;8.93;6.30;;;;;;;;;;4987410;28;20181;-77
2023/07/24 06:55:57;;;;;;;7.83;6.53;;;;;;;;;;4986568;28;20180;-77
2023/07/24 06:58:23;;;;;;;7.43;6.33;;;;;;;;;;4986517;28;20401;-77
2023/07/24 07:00:49;;;;;;;7.07;5.97;;;;;;;;;;4988062;28;20223;-77
2023/07/24 07:03:15;;;;;;;11.00;6.30;;;;;;;;;;4990539;28;20204;-77
2023/07/24 07:05:41;;;;;;;7.43;6.23;;;;;;;;;;4988308;28;20525;-77
2023/07/24 07:08:08;;;;;;;10.40;6.73;;;;;;;;;;4992823;28;20212;-77
2023/07/24 07:10:34;;;;;;;8.53;6.77;;;;;;;;;;4975572;28;20195;-78
2023/07/24 07:13:01;;;;;;;8.40;6.57;;;;;;;;;;4988309;28;20204;-77
2023/07/24 07:15:27;;;;;;;10.27;6.63;;;;;;;;;;4990353;28;20625;-77
2023/07/24 07:17:53;;;;;;;9.60;6.53;;;;;;;;;;4987637;28;20693;-77
2023/07/24 07:20:19;;;;;;;11.00;7.23;;;;;;;;;;4987086;28;20195;-77
2023/07/24 07:22:46;;;;;;;10.77;6.87;;;;;;;;;;4952388;28;20212;-77
2023/07/24 07:25:12;;;;;;;9.07;7.00;;;;;;;;;;4981640;28;20195;-77
2023/07/24 07:27:38;;;;;;;10.27;7.37;;;;;;;;;;4978686;28;20207;-77
2023/07/24 07:30:04;;;;;;;9.50;7.17;;;;;;;;;;4986004;28;20188;-79
2023/07/24 07:32:31;;;;;;;9.10;7.00;;;;;;;;;;4978811;28;20219;-78
2023/07/24 07:34:57;;;;;;;8.10;7.00;;;;;;;;;;4978845;28;20998;-78
2023/07/24 07:37:24;;;;;;;8.23;6.93;;;;;;;;;;4977557;28;20196;-77
2023/07/24 07:39:50;;;;;;;8.60;6.77;;;;;;;;;;4997859;28;20265;-77
2023/07/24 07:42:16;;;;;;;8.10;6.67;;;;;;;;;;4978760;28;20755;-77
2023/07/24 07:44:42;;;;;;;9.00;7.43;;;;;;;;;;4980027;28;20263;-77
2023/07/24 07:47:08;;;;;;;10.17;7.20;;;;;;;;;;4982613;28;20714;-78
2023/07/24 07:49:35;;;;;;;8.07;7.03;;;;;;;;;;4978795;28;20196;-78
2023/07/24 07:52:01;;;;;;;9.60;6.83;;;;;;;;;;4980759;28;20211;-79
2023/07/24 07:54:27;;;;;;;9.17;7.10;;;;;;;;;;4984590;28;20216;-78
2023/07/24 07:56:53;;;;;;;8.27;6.77;;;;;;;;;;4975613;28;20618;-78
2023/07/24 07:59:20;;;;;;;11.20;7.00;;;;;;;;;;4981525;28;20266;-78
2023/07/24 08:01:46;;;;;;;8.80;6.87;;;;;;;;;;4984242;28;20200;-77
2023/07/24 08:04:12;;;;;;;9.13;7.33;;;;;;;;;;4981473;28;20823;-79
2023/07/24 08:06:38;;;;;;;8.13;7.00;;;;;;;;;;4975871;28;21390;-78
2023/07/24 08:09:04;;;;;;;8.63;6.80;;;;;;;;;;4982399;28;20266;-78
2023/07/24 08:11:30;;;;;;;8.43;6.80;;;;;;;;;;4983330;28;20216;-77
2023/07/24 08:13:57;;;;;;;7.57;6.77;;;;;;;;;;4986317;28;20179;-76
2023/07/24 08:16:23;;;;;;;9.17;7.10;;;;;;;;;;4980214;28;20189;-77
2023/07/24 08:18:49;;;;;;;8.73;7.20;;;;;;;;;;4977754;28;20243;-76
2023/07/24 08:21:16;;;;;;;11.30;7.60;;;;;;;;;;4984202;28;20197;-76
2023/07/24 08:23:42;;;;;;;11.23;7.17;;;;;;;;;;4983968;28;20219;-80
2023/07/24 08:26:08;;;;;;;8.83;6.90;;;;;;;;;;4982742;28;20243;-78
2023/07/24 08:28:35;;;;;;;9.23;7.17;;;;;;;;;;4983355;28;20601;-77
2023/07/24 08:31:02;;;;;;;8.73;7.03;;;;;;;;;;4981227;28;20184;-77
2023/07/24 08:33:28;;;;;;;10.77;7.17;;;;;;;;;;4981888;28;20776;-81
2023/07/24 08:36:07;;;;;;;8.07;7.00;;;;;;;;;;4979667;28;20181;-79
2023/07/24 08:38:34;;;;;;;7.20;6.50;;;;;;;;;;4971552;28;20564;-76
2023/07/24 08:41:04;;;;;;;10.93;7.03;;;;;;;;;;4976368;28;20301;-77
2023/07/24 08:43:31;;;;;;;7.87;6.93;;;;;;;;;;4975214;28;20207;-79
2023/07/24 08:45:58;;;;;;;10.07;7.53;;;;;;;;;;4981543;28;20262;-77
2023/07/24 08:48:25;;;;;;;10.20;7.30;;;;;;;;;;4969024;28;20281;-76
2023/07/24 08:50:52;;;;;;;11.77;7.17;;;;;;;;;;4977531;28;20869;-76
2023/07/24 08:53:20;;;;;;;8.20;7.33;;;;;;;;;;4977755;28;20200;-78
2023/07/24 08:55:48;;;;;;;8.50;6.93;;;;;;;;;;4977689;28;20188;-77
2023/07/24 08:58:14;;;;;;;10.10;6.80;;;;;;;;;;4982067;28;20196;-79
2023/07/24 09:00:40;;;;;;;8.77;6.57;;;;;;;;;;4973275;28;20215;-79
2023/07/24 09:03:07;;;;;;;8.70;7.10;;;;;;;;;;4979794;28;20708;-76
2023/07/24 09:05:34;;;;;;;8.70;6.90;;;;;;;;;;4982478;28;20180;-76
2023/07/24 09:08:00;;;;;;;7.70;6.20;;;;;;;;;;4975422;28;20293;-76
2023/07/24 09:10:26;;;;;;;8.30;6.83;;;;;;;;;;4974223;28;20652;-79
2023/07/24 09:12:54;;;;;;;8.47;7.00;;;;;;;;;;4981481;28;20217;-76
2023/07/24 09:15:21;;;;;;;10.73;6.60;;;;;;;;;;4977615;28;20184;-79
2023/07/24 09:17:48;;;;;;;11.77;6.67;;;;;;;;;;4978224;28;20188;-76
2023/07/24 09:20:14;;;;;;;7.63;6.20;;;;;;;;;;4980898;28;20191;-76
2023/07/24 09:22:48;;;;;;;8.30;6.33;;;;;;;;;;4978787;28;20207;-79
2023/07/24 09:25:14;;;;;;;7.13;6.23;;;;;;;;;;4988276;28;20281;-76
2023/07/24 09:27:41;;;;;;;8.77;6.50;;;;;;;;;;4978118;28;20716;-76
2023/07/24 09:30:18;;;;;;;7.17;6.30;;;;;;;;;;4979282;28;20191;-79
2023/07/24 09:32:52;;;;;;;9.17;6.63;;;;;;;;;;4978638;28;20542;-76
2023/07/24 09:35:18;;;;;;;8.37;6.53;;;;;;;;;;4981892;28;20238;-77
2023/07/24 09:37:45;;;;;;;7.57;6.50;;;;;;;;;;4975916;28;20570;-76
2023/07/24 09:40:12;;;;;;;7.67;6.50;;;;;;;;;;4976957;28;20196;-78
2023/07/24 09:42:42;;;;;;;10.23;6.50;;;;;;;;;;4976065;28;20524;-76
2023/07/24 09:45:08;;;;;;;8.90;6.40;;;;;;;;;;4975508;28;20188;-79
2023/07/24 09:47:35;;;;;;;7.87;6.43;;;;;;;;;;4976685;28;20209;-80
2023/07/24 09:50:05;;;;;;;8.13;6.53;;;;;;;;;;4985548;28;20683;-84
2023/07/24 09:52:31;;;;;;;7.53;6.13;;;;;;;;;;4975603;28;20370;-76
2023/07/24 09:55:07;;;;;;;8.57;7.13;;;;;;;;;;4975926;28;20176;-76
2023/07/24 09:57:35;;;;;;;6.87;6.13;;;;;;;;;;4982187;28;20547;-76
2023/07/24 10:00:01;;;;;;;8.93;6.50;;;;;;;;;;4978779;28;20731;-79
2023/07/24 10:02:32;;;;;;;9.77;6.40;;;;;;;;;;4971849;28;20207;-81
2023/07/24 10:04:59;;;;;;;7.40;6.60;;;;;;;;;;4980205;28;20195;-76
2023/07/24 10:07:25;;;;;;;8.27;6.57;;;;;;;;;;4974058;28;20212;-77
2023/07/24 10:09:52;;;;;;;9.40;6.27;;;;;;;;;;4979762;28;20485;-79
2023/07/24 10:12:21;;;;;;;10.17;6.27;;;;;;;;;;4968793;28;20209;-77
2023/07/24 10:14:48;;;;;;;8.13;6.67;;;;;;;;;;4981396;28;20193;-76
2023/07/24 10:17:14;;;;;;;8.77;6.77;;;;;;;;;;4979357;28;21254;-78
2023/07/24 10:19:43;;;;;;;8.40;6.70;;;;;;;;;;4978428;28;20279;-78
2023/07/24 10:22:18;;;;;;;9.23;6.70;;;;;;;;;;4981399;28;20566;-77
2023/07/24 10:24:45;;;;;;;7.23;6.50;;;;;;;;;;4978352;28;20187;-85
2023/07/24 10:27:14;;;;;;;7.67;6.37;;;;;;;;;;4980473;28;20305;-77
2023/07/24 10:29:58;;;;;;;8.10;6.27;;;;;;;;;;4980784;28;20188;-77
2023/07/24 10:32:24;;;;;;;8.30;6.33;;;;;;;;;;4971071;28;20693;-79
2023/07/24 10:34:57;;;;;;;7.30;6.20;;;;;;;;;;4968132;28;20210;-78
2023/07/24 10:37:31;;;;;;;8.90;6.13;;;;;;;;;;4973940;28;20269;-76
2023/07/24 10:39:58;;;;;;;7.20;6.07;;;;;;;;;;4984174;28;21043;-76
2023/07/24 10:42:24;;;;;;;9.20;6.20;;;;;;;;;;4983514;28;20218;-76
2023/07/24 10:44:50;;;;;;;9.73;6.47;;;;;;;;;;4987352;28;20699;-84
2023/07/24 10:47:17;;;;;;;9.67;6.20;;;;;;;;;;4982938;28;20253;-79
2023/07/24 10:49:49;;;;;;;6.90;5.97;;;;;;;;;;4982321;28;20193;-79
2023/07/24 10:52:15;;;;;;;7.20;6.50;;;;;;;;;;5037512;22;20658;-76
2023/07/24 10:54:41;;;;;;;7.33;6.07;;;;;;;;;;5021310;28;20217;-75
2023/07/24 10:57:07;;;;;;;6.90;6.20;;;;;;;;;;4998770;28;20180;-75
2023/07/24 10:59:37;;;;;;;6.53;5.83;;;;;;;;;;5040475;28;20591;-76
2023/07/24 11:02:04;;;;;;;13.37;6.63;;;;;;;;;;5001274;28;20310;-78
2023/07/24 11:04:30;;;;;;;7.27;6.10;;;;;;;;;;4982723;28;20202;-78
2023/07/24 11:06:57;;;;;;;7.60;6.13;;;;;;;;;;4990913;28;20249;-78
2023/07/24 11:09:34;;;;;;;6.10;5.40;;;;;;;;;;5020825;28;20179;-77
2023/07/24 11:12:00;;;;;;;7.43;6.00;;;;;;;;;;5024993;28;20212;-78
2023/07/24 11:14:27;;;;;;;7.73;5.90;;;;;;;;;;5019859;28;20188;-78
2023/07/24 11:16:53;;;;;;;8.83;5.80;;;;;;;;;;5010306;28;20213;-79
2023/07/24 11:19:26;;;;;;;8.47;6.00;;;;;;;;;;5024065;28;20186;-78
2023/07/24 11:21:52;;;;;;;6.07;5.47;;;;;;;;;;5016885;28;20274;-79
2023/07/24 11:24:18;;;;;;;9.97;6.10;;;;;;;;;;4997802;28;20247;-79
2023/07/24 11:26:44;;;;;;;8.70;5.90;;;;;;;;;;5019405;28;20235;-79
2023/07/24 11:29:13;;;;;;;7.87;5.93;;;;;;;;;;5021734;28;20186;-79
2023/07/24 11:31:40;;;;;;;7.43;5.90;;;;;;;;;;5020353;28;20199;-80
2023/07/24 11:34:06;;;;;;;7.57;6.07;;;;;;;;;;5020434;28;20178;-80
2023/07/24 11:36:33;;;;;;;7.20;5.70;;;;;;;;;;5017955;28;20174;-79
2023/07/24 11:38:59;;;;;;;7.03;5.97;;;;;;;;;;4998643;28;20194;-79
2023/07/24 11:41:26;;;;;;;7.27;5.50;;;;;;;;;;5017611;28;20223;-78
2023/07/24 11:43:52;;;;;;;6.37;5.23;;;;;;;;;;5020542;28;20209;-78
2023/07/24 11:46:28;;;;;;;7.63;6.00;;;;;;;;;;5016341;28;20191;-79
2023/07/24 11:48:56;;;;;;;7.60;6.03;;;;;;;;;;5027538;28;20213;-79
2023/07/24 11:51:24;;;;;;;6.70;6.00;;;;;;;;;;5014218;28;20214;-79
2023/07/24 11:53:50;;;;;;;7.00;6.20;;;;;;;;;;5016188;28;20221;-79
2023/07/24 11:56:18;;;;;;;8.00;5.80;;;;;;;;;;4997207;28;20598;-79
2023/07/24 11:58:44;;;;;;;11.33;6.33;;;;;;;;;;5013850;28;20171;-80
2023/07/24 12:01:13;;;;;;;7.23;6.10;;;;;;;;;;5010122;28;20230;-79
2023/07/24 12:03:39;;;;;;;6.90;6.20;;;;;;;;;;5000838;28;21007;-80
2023/07/24 12:06:05;;;;;;;7.00;6.30;;;;;;;;;;5014697;28;20182;-88
2023/07/24 12:08:33;;;;;;;7.07;6.37;;;;;;;;;;5014020;28;20195;-78
2023/07/24 12:11:00;;;;;;;7.67;6.47;;;;;;;;;;5013455;28;20238;-77
2023/07/24 12:13:26;;;;;;;7.33;6.47;;;;;;;;;;5001294;28;20681;-73
2023/07/24 12:15:52;;;;;;;7.23;6.47;;;;;;;;;;5014322;28;20278;-73
2023/07/24 12:18:19;;;;;;;7.23;6.10;;;;;;;;;;5018081;28;20185;-80
2023/07/24 12:20:45;;;;;;;6.70;6.10;;;;;;;;;;5018199;28;20198;-80
2023/07/24 12:23:11;;;;;;;7.97;6.43;;;;;;;;;;5020341;28;20673;-80
2023/07/24 12:25:37;;;;;;;9.23;6.60;;;;;;;;;;5020573;28;20228;-79
2023/07/24 12:28:03;;;;;;;7.63;6.20;;;;;;;;;;5018189;28;20744;-80
2023/07/24 12:30:29;;;;;;;8.87;6.73;;;;;;;;;;5005298;28;20186;-81
2023/07/24 12:32:56;;;;;;;10.17;6.20;;;;;;;;;;4998384;28;20570;-82
2023/07/24 12:35:22;;;;;;;7.37;5.77;;;;;;;;;;4978141;28;20209;-80
2023/07/24 12:37:48;;;;;;;7.30;5.93;;;;;;;;;;5015078;28;20179;-82
2023/07/24 12:40:14;;;;;;;7.47;6.10;;;;;;;;;;5021024;28;20182;-80
2023/07/24 12:42:40;;;;;;;8.60;6.20;;;;;;;;;;5002338;28;20203;-80
2023/07/24 12:45:06;;;;;;;9.37;6.37;;;;;;;;;;5021623;28;20669;-79
2023/07/24 12:47:33;;;;;;;8.83;6.13;;;;;;;;;;5004887;28;20631;-79
2023/07/24 12:50:01;;;;;;;7.10;5.90;;;;;;;;;;4980623;28;20233;-80
2023/07/24 12:52:30;;;;;;;7.00;6.30;;;;;;;;;;5008216;28;20218;-81
2023/07/24 12:54:56;;;;;;;7.50;6.30;;;;;;;;;;4994255;28;20199;-80
2023/07/24 12:57:23;;;;;;;6.93;6.23;;;;;;;;;;5011116;28;20178;-81
2023/07/24 12:59:49;;;;;;;6.73;6.03;;;;;;;;;;5007447;28;20190;-82
2023/07/24 13:02:15;;;;;;;6.87;6.07;;;;;;;;;;5012193;28;20203;-78
2023/07/24 13:04:41;;;;;;;7.87;6.20;;;;;;;;;;5011963;28;20592;-82
2023/07/24 13:07:07;;;;;;;8.13;6.47;;;;;;;;;;5009784;28;20236;-82
2023/07/24 13:09:34;;;;;;;8.43;6.70;;;;;;;;;;4996575;28;20179;-80
2023/07/24 13:12:00;;;;;;;7.77;5.97;;;;;;;;;;4995557;28;20683;-80
2023/07/24 13:14:26;;;;;;;6.90;6.20;;;;;;;;;;4993872;28;20187;-80
2023/07/24 13:16:52;;;;;;;7.27;6.53;;;;;;;;;;4978660;28;20194;-81
2023/07/24 13:19:19;;;;;;;6.67;6.07;;;;;;;;;;5012327;28;20187;-80
2023/07/24 13:21:46;;;;;;;7.67;6.60;;;;;;;;;;5010199;28;20199;-81
2023/07/24 13:24:13;;;;;;;7.47;5.97;;;;;;;;;;4963228;28;20639;-82
2023/07/24 13:26:40;;;;;;;8.80;6.80;;;;;;;;;;4994121;28;20738;-81
2023/07/24 13:29:06;;;;;;;8.60;6.40;;;;;;;;;;5003007;28;20189;-82
2023/07/24 13:31:32;;;;;;;6.97;6.27;;;;;;;;;;4988048;28;20627;-82
2023/07/24 13:33:58;;;;;;;7.43;6.67;;;;;;;;;;4990746;28;20286;-81
2023/07/24 13:36:24;;;;;;;7.00;6.30;;;;;;;;;;5006907;28;20686;-82
2023/07/24 13:38:51;;;;;;;7.20;6.03;;;;;;;;;;5017216;28;20243;-82
2023/07/24 13:41:18;;;;;;;7.43;6.03;;;;;;;;;;5018050;28;20207;-82
2023/07/24 13:43:44;;;;;;;6.87;5.73;;;;;;;;;;5019240;28;20613;-82
2023/07/24 13:46:10;;;;;;;7.77;5.97;;;;;;;;;;5004753;28;20182;-81
2023/07/24 13:48:36;;;;;;;6.40;5.67;;;;;;;;;;5004662;28;20213;-81
2023/07/24 13:51:02;;;;;;;7.27;5.73;;;;;;;;;;5022375;28;20210;-81
2023/07/24 13:53:28;;;;;;;7.80;5.70;;;;;;;;;;4999238;28;20203;-81
2023/07/24 13:55:55;;;;;;;7.60;5.97;;;;;;;;;;5021556;28;20360;-82
2023/07/24 13:58:21;;;;;;;6.33;5.73;;;;;;;;;;4993002;28;20187;-81
2023/07/24 14:00:47;;;;;;;6.63;5.93;;;;;;;;;;5021724;28;20239;-81
2023/07/24 14:03:13;;;;;;;7.53;6.30;;;;;;;;;;5034778;28;20202;-81
2023/07/24 14:05:40;;;;;;;9.10;6.17;;;;;;;;;;5006848;28;20187;-81
2023/07/24 14:08:08;;;;;;;8.37;6.03;;;;;;;;;;5023680;28;20210;-81
2023/07/24 14:10:34;;;;;;;6.70;5.87;;;;;;;;;;5024118;28;20183;-81
2023/07/24 14:13:01;;;;;;;7.33;6.37;;;;;;;;;;4992330;28;20186;-81
2023/07/24 14:15:27;;;;;;;11.63;7.20;;;;;;;;;;5005819;28;20274;-82
2023/07/24 14:18:01;;;;;;;9.37;6.73;;;;;;;;;;5021835;28;20311;-78
2023/07/24 14:20:30;;;;;;;12.10;8.00;;;;;;;;;;4987765;28;20494;-80
2023/07/24 14:22:56;;;;;;;13.67;7.60;;;;;;;;;;5003387;28;20215;-79
2023/07/24 14:25:23;;;;;;;12.33;8.27;;;;;;;;;;5019989;28;20203;-79
2023/07/24 14:27:49;;;;;;;17.47;8.17;;;;;;;;;;5014828;28;20608;-79
2023/07/24 14:30:15;;;;;;;12.03;7.77;;;;;;;;;;5016146;28;20706;-79
2023/07/24 14:32:41;;;;;;;12.47;7.87;;;;;;;;;;5012169;28;20199;-79
2023/07/24 14:35:07;;;;;;;9.83;7.10;;;;;;;;;;5014744;28;20284;-79
2023/07/24 14:37:33;;;;;;;10.23;7.37;;;;;;;;;;5012169;28;20686;-79